sensor_id;sensor_type;location;lat;lon;timestamp;P1;durP1;ratioP1;P2;durP2;ratioP2
69789;SDS011;57064;52.046;4.800;2022-07-29T00:01:34;5.57;;;2.00;;
69789;SDS011;57064;52.046;4.800;2022-07-29T00:04:00;5.30;;;1.88;;
69789;SDS011;57064;52.046;4.800;2022-07-29T00:06:26;5.15;;;1.98;;
69789;SDS011;57064;52.046;4.800;2022-07-29T00:08:52;4.55;;;2.25;;
69789;SDS011;57064;52.046;4.800;2022-07-29T00:11:18;3.90;;;1.90;;
69789;SDS011;57064;52.046;4.800;2022-07-29T00:13:44;6.57;;;2.00;;
69789;SDS011;57064;52.046;4.800;2022-07-29T00:16:10;3.40;;;2.15;;
69789;SDS011;57064;52.046;4.800;2022-07-29T00:18:36;2.72;;;1.70;;
69789;SDS011;57064;52.046;4.800;2022-07-29T00:21:02;3.63;;;1.92;;
69789;SDS011;57064;52.046;4.800;2022-07-29T00:23:28;3.63;;;1.92;;
69789;SDS011;57064;52.046;4.800;2022-07-29T00:25:54;6.20;;;2.13;;
69789;SDS011;57064;52.046;4.800;2022-07-29T00:28:20;3.45;;;2.20;;
69789;SDS011;57064;52.046;4.800;2022-07-29T00:30:46;4.10;;;1.92;;
69789;SDS011;57064;52.046;4.800;2022-07-29T00:33:12;4.75;;;1.95;;
69789;SDS011;57064;52.046;4.800;2022-07-29T00:35:38;6.05;;;2.40;;
69789;SDS011;57064;52.046;4.800;2022-07-29T00:38:11;5.38;;;1.77;;
69789;SDS011;57064;52.046;4.800;2022-07-29T00:40:38;4.18;;;2.10;;
69789;SDS011;57064;52.046;4.800;2022-07-29T00:43:05;3.55;;;2.17;;
69789;SDS011;57064;52.046;4.800;2022-07-29T00:45:32;4.38;;;2.20;;
69789;SDS011;57064;52.046;4.800;2022-07-29T00:47:58;6.13;;;2.13;;
69789;SDS011;57064;52.046;4.800;2022-07-29T00:50:24;3.15;;;1.95;;
69789;SDS011;57064;52.046;4.800;2022-07-29T00:52:50;4.43;;;2.30;;
69789;SDS011;57064;52.046;4.800;2022-07-29T00:55:17;3.65;;;2.03;;
69789;SDS011;57064;52.046;4.800;2022-07-29T00:57:44;2.95;;;2.10;;
69789;SDS011;57064;52.046;4.800;2022-07-29T01:00:12;2.92;;;1.98;;
69789;SDS011;57064;52.046;4.800;2022-07-29T01:02:44;4.35;;;2.13;;
69789;SDS011;57064;52.046;4.800;2022-07-29T01:05:13;8.38;;;2.20;;
69789;SDS011;57064;52.046;4.800;2022-07-29T01:07:42;3.22;;;2.08;;
69789;SDS011;57064;52.046;4.800;2022-07-29T01:10:09;5.95;;;1.95;;
69789;SDS011;57064;52.046;4.800;2022-07-29T01:12:37;4.03;;;2.17;;
69789;SDS011;57064;52.046;4.800;2022-07-29T01:15:04;4.50;;;2.42;;
69789;SDS011;57064;52.046;4.800;2022-07-29T01:17:33;5.53;;;2.90;;
69789;SDS011;57064;52.046;4.800;2022-07-29T01:20:20;3.00;;;2.00;;
69789;SDS011;57064;52.046;4.800;2022-07-29T01:28:21;5.00;;;2.40;;
69789;SDS011;57064;52.046;4.800;2022-07-29T01:31:03;4.53;;;2.35;;
69789;SDS011;57064;52.046;4.800;2022-07-29T01:33:31;4.93;;;2.97;;
69789;SDS011;57064;52.046;4.800;2022-07-29T01:36:17;4.30;;;2.40;;
69789;SDS011;57064;52.046;4.800;2022-07-29T01:38:59;4.88;;;2.53;;
69789;SDS011;57064;52.046;4.800;2022-07-29T01:41:28;4.22;;;2.60;;
69789;SDS011;57064;52.046;4.800;2022-07-29T01:43:59;6.50;;;2.30;;
69789;SDS011;57064;52.046;4.800;2022-07-29T01:46:31;6.70;;;2.70;;
69789;SDS011;57064;52.046;4.800;2022-07-29T01:49:02;4.68;;;2.38;;
69789;SDS011;57064;52.046;4.800;2022-07-29T01:51:33;4.78;;;2.60;;
69789;SDS011;57064;52.046;4.800;2022-07-29T01:54:08;3.30;;;2.35;;
69789;SDS011;57064;52.046;4.800;2022-07-29T01:56:35;4.60;;;2.58;;
69789;SDS011;57064;52.046;4.800;2022-07-29T01:59:03;3.75;;;2.88;;
69789;SDS011;57064;52.046;4.800;2022-07-29T02:01:31;6.90;;;2.72;;
69789;SDS011;57064;52.046;4.800;2022-07-29T02:04:00;6.50;;;2.67;;
69789;SDS011;57064;52.046;4.800;2022-07-29T02:06:28;4.75;;;2.38;;
69789;SDS011;57064;52.046;4.800;2022-07-29T02:08:58;5.13;;;2.90;;
69789;SDS011;57064;52.046;4.800;2022-07-29T02:11:25;5.43;;;2.60;;
69789;SDS011;57064;52.046;4.800;2022-07-29T02:13:52;5.57;;;3.10;;
69789;SDS011;57064;52.046;4.800;2022-07-29T02:16:21;5.45;;;2.97;;
69789;SDS011;57064;52.046;4.800;2022-07-29T02:18:50;4.45;;;2.72;;
69789;SDS011;57064;52.046;4.800;2022-07-29T02:21:20;5.18;;;2.63;;
69789;SDS011;57064;52.046;4.800;2022-07-29T02:23:49;4.85;;;3.20;;
69789;SDS011;57064;52.046;4.800;2022-07-29T02:26:18;5.28;;;3.03;;
69789;SDS011;57064;52.046;4.800;2022-07-29T02:28:46;4.68;;;3.00;;
69789;SDS011;57064;52.046;4.800;2022-07-29T02:31:14;4.53;;;3.13;;
69789;SDS011;57064;52.046;4.800;2022-07-29T02:33:43;6.18;;;2.78;;
69789;SDS011;57064;52.046;4.800;2022-07-29T02:36:11;4.13;;;2.92;;
69789;SDS011;57064;52.046;4.800;2022-07-29T02:38:38;4.20;;;3.17;;
69789;SDS011;57064;52.046;4.800;2022-07-29T02:41:19;6.38;;;3.78;;
69789;SDS011;57064;52.046;4.800;2022-07-29T02:43:55;6.13;;;3.33;;
69789;SDS011;57064;52.046;4.800;2022-07-29T02:51:42;5.40;;;3.33;;
69789;SDS011;57064;52.046;4.800;2022-07-29T02:54:11;6.97;;;3.15;;
69789;SDS011;57064;52.046;4.800;2022-07-29T02:56:46;7.20;;;3.70;;
69789;SDS011;57064;52.046;4.800;2022-07-29T02:59:14;7.25;;;3.22;;
69789;SDS011;57064;52.046;4.800;2022-07-29T03:01:44;5.35;;;3.70;;
69789;SDS011;57064;52.046;4.800;2022-07-29T03:04:11;6.45;;;3.35;;
69789;SDS011;57064;52.046;4.800;2022-07-29T03:06:39;6.57;;;3.85;;
69789;SDS011;57064;52.046;4.800;2022-07-29T03:09:07;7.03;;;3.42;;
69789;SDS011;57064;52.046;4.800;2022-07-29T03:11:36;5.68;;;3.25;;
69789;SDS011;57064;52.046;4.800;2022-07-29T03:14:03;6.22;;;3.90;;
69789;SDS011;57064;52.046;4.800;2022-07-29T03:16:30;7.90;;;3.53;;
69789;SDS011;57064;52.046;4.800;2022-07-29T03:18:57;6.18;;;3.30;;
69789;SDS011;57064;52.046;4.800;2022-07-29T03:21:24;7.53;;;3.72;;
69789;SDS011;57064;52.046;4.800;2022-07-29T03:23:50;7.28;;;3.58;;
69789;SDS011;57064;52.046;4.800;2022-07-29T03:26:16;6.07;;;3.47;;
69789;SDS011;57064;52.046;4.800;2022-07-29T03:28:43;7.15;;;4.10;;
69789;SDS011;57064;52.046;4.800;2022-07-29T03:31:09;9.05;;;4.05;;
69789;SDS011;57064;52.046;4.800;2022-07-29T03:33:35;7.78;;;3.88;;
69789;SDS011;57064;52.046;4.800;2022-07-29T03:36:01;7.75;;;4.03;;
69789;SDS011;57064;52.046;4.800;2022-07-29T03:38:29;8.38;;;4.50;;
69789;SDS011;57064;52.046;4.800;2022-07-29T03:41:02;4.97;;;3.70;;
69789;SDS011;57064;52.046;4.800;2022-07-29T03:43:32;6.50;;;3.17;;
69789;SDS011;57064;52.046;4.800;2022-07-29T03:46:01;6.93;;;3.70;;
69789;SDS011;57064;52.046;4.800;2022-07-29T03:48:31;7.57;;;5.00;;
69789;SDS011;57064;52.046;4.800;2022-07-29T03:51:07;6.35;;;4.70;;
69789;SDS011;57064;52.046;4.800;2022-07-29T03:53:33;6.13;;;4.68;;
69789;SDS011;57064;52.046;4.800;2022-07-29T03:56:01;7.68;;;4.93;;
69789;SDS011;57064;52.046;4.800;2022-07-29T03:58:28;7.40;;;4.22;;
69789;SDS011;57064;52.046;4.800;2022-07-29T04:00:56;9.25;;;4.70;;
69789;SDS011;57064;52.046;4.800;2022-07-29T04:03:23;8.40;;;5.10;;
69789;SDS011;57064;52.046;4.800;2022-07-29T04:05:59;7.40;;;5.05;;
69789;SDS011;57064;52.046;4.800;2022-07-29T04:08:26;6.68;;;4.63;;
69789;SDS011;57064;52.046;4.800;2022-07-29T04:10:52;6.50;;;4.15;;
69789;SDS011;57064;52.046;4.800;2022-07-29T04:13:19;6.00;;;4.22;;
69789;SDS011;57064;52.046;4.800;2022-07-29T04:15:45;13.18;;;5.03;;
69789;SDS011;57064;52.046;4.800;2022-07-29T04:18:11;6.68;;;4.68;;
69789;SDS011;57064;52.046;4.800;2022-07-29T04:20:37;7.75;;;4.85;;
69789;SDS011;57064;52.046;4.800;2022-07-29T04:23:03;7.82;;;4.57;;
69789;SDS011;57064;52.046;4.800;2022-07-29T04:25:29;6.35;;;3.92;;
69789;SDS011;57064;52.046;4.800;2022-07-29T04:27:55;8.32;;;3.90;;
69789;SDS011;57064;52.046;4.800;2022-07-29T04:30:28;8.98;;;4.15;;
69789;SDS011;57064;52.046;4.800;2022-07-29T04:32:55;9.10;;;4.10;;
69789;SDS011;57064;52.046;4.800;2022-07-29T04:35:21;7.63;;;3.83;;
69789;SDS011;57064;52.046;4.800;2022-07-29T04:37:47;5.50;;;3.72;;
69789;SDS011;57064;52.046;4.800;2022-07-29T04:40:13;8.52;;;4.25;;
69789;SDS011;57064;52.046;4.800;2022-07-29T04:42:39;7.00;;;4.35;;
69789;SDS011;57064;52.046;4.800;2022-07-29T04:45:05;8.77;;;4.18;;
69789;SDS011;57064;52.046;4.800;2022-07-29T04:47:32;7.15;;;4.15;;
69789;SDS011;57064;52.046;4.800;2022-07-29T04:49:58;5.88;;;3.38;;
69789;SDS011;57064;52.046;4.800;2022-07-29T04:52:24;6.65;;;3.55;;
69789;SDS011;57064;52.046;4.800;2022-07-29T04:54:50;9.30;;;3.97;;
69789;SDS011;57064;52.046;4.800;2022-07-29T04:57:16;7.03;;;3.60;;
69789;SDS011;57064;52.046;4.800;2022-07-29T04:59:42;6.55;;;3.40;;
69789;SDS011;57064;52.046;4.800;2022-07-29T05:02:08;6.70;;;3.92;;
69789;SDS011;57064;52.046;4.800;2022-07-29T05:04:34;4.95;;;3.13;;
69789;SDS011;57064;52.046;4.800;2022-07-29T05:07:00;5.90;;;3.40;;
69789;SDS011;57064;52.046;4.800;2022-07-29T05:09:26;9.52;;;3.78;;
69789;SDS011;57064;52.046;4.800;2022-07-29T05:11:54;7.47;;;3.28;;
69789;SDS011;57064;52.046;4.800;2022-07-29T05:14:20;7.22;;;3.40;;
69789;SDS011;57064;52.046;4.800;2022-07-29T05:16:46;7.63;;;3.78;;
69789;SDS011;57064;52.046;4.800;2022-07-29T05:19:12;9.18;;;3.83;;
69789;SDS011;57064;52.046;4.800;2022-07-29T05:21:38;6.90;;;3.38;;
69789;SDS011;57064;52.046;4.800;2022-07-29T05:24:04;5.78;;;3.20;;
69789;SDS011;57064;52.046;4.800;2022-07-29T05:26:30;9.30;;;3.80;;
69789;SDS011;57064;52.046;4.800;2022-07-29T05:28:56;7.38;;;3.38;;
69789;SDS011;57064;52.046;4.800;2022-07-29T05:31:22;5.30;;;2.88;;
69789;SDS011;57064;52.046;4.800;2022-07-29T05:33:48;8.43;;;3.53;;
69789;SDS011;57064;52.046;4.800;2022-07-29T05:36:14;5.60;;;3.72;;
69789;SDS011;57064;52.046;4.800;2022-07-29T05:38:40;5.80;;;3.20;;
69789;SDS011;57064;52.046;4.800;2022-07-29T05:41:06;9.35;;;3.33;;
69789;SDS011;57064;52.046;4.800;2022-07-29T05:43:32;6.30;;;3.10;;
69789;SDS011;57064;52.046;4.800;2022-07-29T05:45:58;7.13;;;3.03;;
69789;SDS011;57064;52.046;4.800;2022-07-29T05:48:24;6.78;;;3.90;;
69789;SDS011;57064;52.046;4.800;2022-07-29T05:50:51;7.05;;;3.70;;
69789;SDS011;57064;52.046;4.800;2022-07-29T05:53:17;6.07;;;3.10;;
69789;SDS011;57064;52.046;4.800;2022-07-29T05:55:43;7.47;;;3.13;;
69789;SDS011;57064;52.046;4.800;2022-07-29T05:58:09;6.13;;;3.28;;
69789;SDS011;57064;52.046;4.800;2022-07-29T06:00:35;4.97;;;3.15;;
69789;SDS011;57064;52.046;4.800;2022-07-29T06:03:01;7.80;;;3.05;;
69789;SDS011;57064;52.046;4.800;2022-07-29T06:05:27;6.70;;;3.20;;
69789;SDS011;57064;52.046;4.800;2022-07-29T06:07:53;6.18;;;2.90;;
69789;SDS011;57064;52.046;4.800;2022-07-29T06:10:19;6.15;;;2.90;;
69789;SDS011;57064;52.046;4.800;2022-07-29T06:12:45;8.65;;;4.53;;
69789;SDS011;57064;52.046;4.800;2022-07-29T06:15:11;7.43;;;3.13;;
69789;SDS011;57064;52.046;4.800;2022-07-29T06:17:37;4.30;;;2.88;;
69789;SDS011;57064;52.046;4.800;2022-07-29T06:20:03;4.40;;;2.72;;
69789;SDS011;57064;52.046;4.800;2022-07-29T06:22:30;6.65;;;2.38;;
69789;SDS011;57064;52.046;4.800;2022-07-29T06:24:56;4.47;;;2.58;;
69789;SDS011;57064;52.046;4.800;2022-07-29T06:27:22;5.90;;;3.10;;
69789;SDS011;57064;52.046;4.800;2022-07-29T06:29:48;4.40;;;2.20;;
69789;SDS011;57064;52.046;4.800;2022-07-29T06:32:14;6.90;;;2.63;;
69789;SDS011;57064;52.046;4.800;2022-07-29T06:34:40;6.80;;;2.63;;
69789;SDS011;57064;52.046;4.800;2022-07-29T06:37:06;6.35;;;2.60;;
69789;SDS011;57064;52.046;4.800;2022-07-29T06:39:34;5.28;;;2.35;;
69789;SDS011;57064;52.046;4.800;2022-07-29T06:42:01;3.50;;;2.40;;
69789;SDS011;57064;52.046;4.800;2022-07-29T06:44:29;5.47;;;2.60;;
69789;SDS011;57064;52.046;4.800;2022-07-29T06:46:55;6.30;;;2.65;;
69789;SDS011;57064;52.046;4.800;2022-07-29T06:49:22;3.20;;;2.25;;
69789;SDS011;57064;52.046;4.800;2022-07-29T06:51:49;3.80;;;2.38;;
69789;SDS011;57064;52.046;4.800;2022-07-29T06:54:15;3.38;;;2.25;;
69789;SDS011;57064;52.046;4.800;2022-07-29T06:56:41;4.35;;;2.70;;
69789;SDS011;57064;52.046;4.800;2022-07-29T06:59:08;5.40;;;2.30;;
69789;SDS011;57064;52.046;4.800;2022-07-29T07:01:36;3.55;;;2.10;;
69789;SDS011;57064;52.046;4.800;2022-07-29T07:04:04;3.15;;;1.98;;
69789;SDS011;57064;52.046;4.800;2022-07-29T07:06:30;3.55;;;2.30;;
69789;SDS011;57064;52.046;4.800;2022-07-29T07:08:56;5.15;;;2.78;;
69789;SDS011;57064;52.046;4.800;2022-07-29T07:11:22;6.35;;;2.58;;
69789;SDS011;57064;52.046;4.800;2022-07-29T07:13:48;3.85;;;2.20;;
69789;SDS011;57064;52.046;4.800;2022-07-29T07:16:14;3.95;;;2.20;;
69789;SDS011;57064;52.046;4.800;2022-07-29T07:18:40;2.97;;;2.00;;
69789;SDS011;57064;52.046;4.800;2022-07-29T07:21:07;4.32;;;2.20;;
69789;SDS011;57064;52.046;4.800;2022-07-29T07:23:33;4.03;;;2.10;;
69789;SDS011;57064;52.046;4.800;2022-07-29T07:25:59;3.75;;;2.30;;
69789;SDS011;57064;52.046;4.800;2022-07-29T07:28:25;4.28;;;2.20;;
69789;SDS011;57064;52.046;4.800;2022-07-29T07:30:51;3.28;;;2.05;;
69789;SDS011;57064;52.046;4.800;2022-07-29T07:33:17;4.65;;;2.70;;
69789;SDS011;57064;52.046;4.800;2022-07-29T07:35:43;4.75;;;2.40;;
69789;SDS011;57064;52.046;4.800;2022-07-29T07:38:09;5.00;;;2.38;;
69789;SDS011;57064;52.046;4.800;2022-07-29T07:40:36;3.92;;;2.03;;
69789;SDS011;57064;52.046;4.800;2022-07-29T07:43:02;4.18;;;2.30;;
69789;SDS011;57064;52.046;4.800;2022-07-29T07:45:28;3.55;;;2.08;;
69789;SDS011;57064;52.046;4.800;2022-07-29T07:47:54;4.95;;;2.35;;
69789;SDS011;57064;52.046;4.800;2022-07-29T07:50:20;3.67;;;2.17;;
69789;SDS011;57064;52.046;4.800;2022-07-29T07:52:47;6.60;;;2.75;;
69789;SDS011;57064;52.046;4.800;2022-07-29T07:55:15;6.43;;;2.67;;
69789;SDS011;57064;52.046;4.800;2022-07-29T07:57:41;4.22;;;2.55;;
69789;SDS011;57064;52.046;4.800;2022-07-29T08:00:08;3.45;;;2.50;;
69789;SDS011;57064;52.046;4.800;2022-07-29T08:02:34;5.13;;;2.47;;
69789;SDS011;57064;52.046;4.800;2022-07-29T08:05:00;4.85;;;2.80;;
69789;SDS011;57064;52.046;4.800;2022-07-29T08:07:26;7.38;;;2.33;;
69789;SDS011;57064;52.046;4.800;2022-07-29T08:09:54;7.05;;;2.50;;
69789;SDS011;57064;52.046;4.800;2022-07-29T08:12:20;5.07;;;2.80;;
69789;SDS011;57064;52.046;4.800;2022-07-29T08:14:46;3.38;;;2.60;;
69789;SDS011;57064;52.046;4.800;2022-07-29T08:17:13;4.00;;;2.25;;
69789;SDS011;57064;52.046;4.800;2022-07-29T08:19:39;4.28;;;2.35;;
69789;SDS011;57064;52.046;4.800;2022-07-29T08:22:05;4.78;;;2.47;;
69789;SDS011;57064;52.046;4.800;2022-07-29T08:24:31;4.40;;;2.47;;
69789;SDS011;57064;52.046;4.800;2022-07-29T08:27:17;4.25;;;2.40;;
69789;SDS011;57064;52.046;4.800;2022-07-29T08:29:44;5.15;;;2.55;;
69789;SDS011;57064;52.046;4.800;2022-07-29T08:32:10;4.07;;;2.72;;
69789;SDS011;57064;52.046;4.800;2022-07-29T08:34:38;4.13;;;2.30;;
69789;SDS011;57064;52.046;4.800;2022-07-29T08:37:04;4.82;;;2.70;;
69789;SDS011;57064;52.046;4.800;2022-07-29T08:39:30;4.25;;;2.30;;
69789;SDS011;57064;52.046;4.800;2022-07-29T08:41:56;4.43;;;2.30;;
69789;SDS011;57064;52.046;4.800;2022-07-29T08:44:22;2.80;;;2.10;;
69789;SDS011;57064;52.046;4.800;2022-07-29T08:46:48;7.28;;;2.70;;
69789;SDS011;57064;52.046;4.800;2022-07-29T08:49:14;4.63;;;2.55;;
69789;SDS011;57064;52.046;4.800;2022-07-29T08:51:41;6.10;;;2.60;;
69789;SDS011;57064;52.046;4.800;2022-07-29T08:54:08;5.35;;;2.75;;
69789;SDS011;57064;52.046;4.800;2022-07-29T08:56:35;3.30;;;2.20;;
69789;SDS011;57064;52.046;4.800;2022-07-29T08:59:03;4.05;;;2.80;;
69789;SDS011;57064;52.046;4.800;2022-07-29T09:01:30;3.80;;;2.72;;
69789;SDS011;57064;52.046;4.800;2022-07-29T09:03:59;6.28;;;3.10;;
69789;SDS011;57064;52.046;4.800;2022-07-29T09:06:32;4.93;;;2.90;;
69789;SDS011;57064;52.046;4.800;2022-07-29T09:09:02;6.47;;;3.40;;
69789;SDS011;57064;52.046;4.800;2022-07-29T09:11:31;4.55;;;3.20;;
69789;SDS011;57064;52.046;4.800;2022-07-29T09:13:58;7.82;;;3.17;;
69789;SDS011;57064;52.046;4.800;2022-07-29T09:16:24;5.88;;;3.22;;
69789;SDS011;57064;52.046;4.800;2022-07-29T09:18:50;7.18;;;3.17;;
69789;SDS011;57064;52.046;4.800;2022-07-29T09:21:17;4.88;;;3.42;;
69789;SDS011;57064;52.046;4.800;2022-07-29T09:24:06;7.00;;;3.55;;
69789;SDS011;57064;52.046;4.800;2022-07-29T09:26:33;10.00;;;3.08;;
69789;SDS011;57064;52.046;4.800;2022-07-29T09:29:07;6.13;;;3.35;;
69789;SDS011;57064;52.046;4.800;2022-07-29T09:31:39;5.65;;;3.10;;
69789;SDS011;57064;52.046;4.800;2022-07-29T09:34:08;4.72;;;2.90;;
69789;SDS011;57064;52.046;4.800;2022-07-29T09:36:39;5.65;;;3.45;;
69789;SDS011;57064;52.046;4.800;2022-07-29T09:39:09;8.55;;;4.22;;
69789;SDS011;57064;52.046;4.800;2022-07-29T09:41:45;5.03;;;2.55;;
69789;SDS011;57064;52.046;4.800;2022-07-29T09:44:13;5.88;;;2.70;;
69789;SDS011;57064;52.046;4.800;2022-07-29T09:46:40;8.82;;;2.80;;
69789;SDS011;57064;52.046;4.800;2022-07-29T09:49:33;7.05;;;2.85;;
69789;SDS011;57064;52.046;4.800;2022-07-29T09:52:05;5.47;;;2.83;;
69789;SDS011;57064;52.046;4.800;2022-07-29T09:54:33;8.65;;;3.10;;
69789;SDS011;57064;52.046;4.800;2022-07-29T09:57:04;7.18;;;2.75;;
69789;SDS011;57064;52.046;4.800;2022-07-29T09:59:31;5.78;;;2.97;;
69789;SDS011;57064;52.046;4.800;2022-07-29T10:01:59;7.25;;;3.08;;
69789;SDS011;57064;52.046;4.800;2022-07-29T10:04:41;5.97;;;2.63;;
69789;SDS011;57064;52.046;4.800;2022-07-29T10:09:34;7.25;;;2.75;;
69789;SDS011;57064;52.046;4.800;2022-07-29T10:12:10;4.97;;;2.70;;
69789;SDS011;57064;52.046;4.800;2022-07-29T10:14:40;4.93;;;2.92;;
69789;SDS011;57064;52.046;4.800;2022-07-29T10:17:07;4.18;;;2.58;;
69789;SDS011;57064;52.046;4.800;2022-07-29T10:19:35;3.95;;;2.40;;
69789;SDS011;57064;52.046;4.800;2022-07-29T10:22:04;5.78;;;2.55;;
69789;SDS011;57064;52.046;4.800;2022-07-29T10:24:32;5.82;;;2.53;;
69789;SDS011;57064;52.046;4.800;2022-07-29T10:27:01;6.28;;;3.30;;
69789;SDS011;57064;52.046;4.800;2022-07-29T10:29:28;4.32;;;2.80;;
69789;SDS011;57064;52.046;4.800;2022-07-29T10:42:21;6.60;;;2.97;;
69789;SDS011;57064;52.046;4.800;2022-07-29T10:44:50;3.85;;;2.15;;
69789;SDS011;57064;52.046;4.800;2022-07-29T10:47:20;4.68;;;2.58;;
69789;SDS011;57064;52.046;4.800;2022-07-29T10:49:57;4.75;;;2.95;;
69789;SDS011;57064;52.046;4.800;2022-07-29T10:58:10;8.25;;;3.00;;
69789;SDS011;57064;52.046;4.800;2022-07-29T11:00:40;4.03;;;2.03;;
69789;SDS011;57064;52.046;4.800;2022-07-29T11:03:07;5.82;;;2.80;;
69789;SDS011;57064;52.046;4.800;2022-07-29T11:05:52;7.05;;;3.15;;
69789;SDS011;57064;52.046;4.800;2022-07-29T11:08:20;4.20;;;2.70;;
69789;SDS011;57064;52.046;4.800;2022-07-29T11:10:48;3.53;;;1.75;;
69789;SDS011;57064;52.046;4.800;2022-07-29T11:16:20;6.47;;;2.85;;
69789;SDS011;57064;52.046;4.800;2022-07-29T11:21:39;7.28;;;3.05;;
69789;SDS011;57064;52.046;4.800;2022-07-29T11:24:25;4.68;;;2.65;;
69789;SDS011;57064;52.046;4.800;2022-07-29T11:27:27;8.10;;;3.65;;
69789;SDS011;57064;52.046;4.800;2022-07-29T11:29:53;6.90;;;2.60;;
69789;SDS011;57064;52.046;4.800;2022-07-29T11:32:20;6.93;;;2.80;;
69789;SDS011;57064;52.046;4.800;2022-07-29T11:34:48;5.25;;;3.42;;
69789;SDS011;57064;52.046;4.800;2022-07-29T11:37:34;5.93;;;3.03;;
69789;SDS011;57064;52.046;4.800;2022-07-29T11:47:47;3.92;;;2.80;;
69789;SDS011;57064;52.046;4.800;2022-07-29T11:50:16;7.20;;;2.85;;
69789;SDS011;57064;52.046;4.800;2022-07-29T11:52:50;4.65;;;2.85;;
69789;SDS011;57064;52.046;4.800;2022-07-29T11:55:18;8.80;;;2.53;;
69789;SDS011;57064;52.046;4.800;2022-07-29T12:00:36;6.40;;;2.40;;
69789;SDS011;57064;52.046;4.800;2022-07-29T12:03:05;3.35;;;2.45;;
69789;SDS011;57064;52.046;4.800;2022-07-29T12:05:40;3.90;;;2.55;;
69789;SDS011;57064;52.046;4.800;2022-07-29T12:10:38;5.57;;;2.88;;
69789;SDS011;57064;52.046;4.800;2022-07-29T12:13:05;5.07;;;2.40;;
69789;SDS011;57064;52.046;4.800;2022-07-29T12:15:32;9.13;;;2.63;;
69789;SDS011;57064;52.046;4.800;2022-07-29T12:17:58;7.70;;;3.33;;
69789;SDS011;57064;52.046;4.800;2022-07-29T12:20:34;5.18;;;2.60;;
69789;SDS011;57064;52.046;4.800;2022-07-29T12:23:04;5.00;;;2.22;;
69789;SDS011;57064;52.046;4.800;2022-07-29T12:28:02;6.32;;;2.30;;
69789;SDS011;57064;52.046;4.800;2022-07-29T12:30:35;4.35;;;2.25;;
69789;SDS011;57064;52.046;4.800;2022-07-29T12:33:25;10.13;;;2.63;;
69789;SDS011;57064;52.046;4.800;2022-07-29T12:35:54;3.72;;;1.80;;
69789;SDS011;57064;52.046;4.800;2022-07-29T12:38:24;5.60;;;2.28;;
69789;SDS011;57064;52.046;4.800;2022-07-29T12:40:51;5.13;;;2.30;;
69789;SDS011;57064;52.046;4.800;2022-07-29T12:43:19;5.05;;;1.90;;
69789;SDS011;57064;52.046;4.800;2022-07-29T12:45:47;5.03;;;2.58;;
69789;SDS011;57064;52.046;4.800;2022-07-29T12:48:15;5.18;;;2.67;;
69789;SDS011;57064;52.046;4.800;2022-07-29T12:50:59;8.20;;;2.65;;
69789;SDS011;57064;52.046;4.800;2022-07-29T12:53:26;4.38;;;1.77;;
69789;SDS011;57064;52.046;4.800;2022-07-29T12:55:53;4.10;;;2.08;;
69789;SDS011;57064;52.046;4.800;2022-07-29T13:03:25;6.72;;;2.38;;
69789;SDS011;57064;52.046;4.800;2022-07-29T13:05:52;6.30;;;2.63;;
69789;SDS011;57064;52.046;4.800;2022-07-29T13:08:18;3.42;;;2.42;;
69789;SDS011;57064;52.046;4.800;2022-07-29T13:10:44;9.77;;;2.58;;
69789;SDS011;57064;52.046;4.800;2022-07-29T13:13:14;9.15;;;2.92;;
69789;SDS011;57064;52.046;4.800;2022-07-29T13:15:41;9.55;;;2.90;;
69789;SDS011;57064;52.046;4.800;2022-07-29T13:21:10;11.65;;;2.88;;
69789;SDS011;57064;52.046;4.800;2022-07-29T13:23:37;7.18;;;2.90;;
69789;SDS011;57064;52.046;4.800;2022-07-29T13:26:07;6.78;;;2.88;;
69789;SDS011;57064;52.046;4.800;2022-07-29T13:28:34;7.43;;;2.50;;
69789;SDS011;57064;52.046;4.800;2022-07-29T13:31:01;8.07;;;2.70;;
69789;SDS011;57064;52.046;4.800;2022-07-29T13:33:27;7.10;;;2.22;;
69789;SDS011;57064;52.046;4.800;2022-07-29T13:35:53;7.85;;;2.92;;
69789;SDS011;57064;52.046;4.800;2022-07-29T13:38:19;7.05;;;2.20;;
69789;SDS011;57064;52.046;4.800;2022-07-29T13:40:45;5.47;;;2.25;;
69789;SDS011;57064;52.046;4.800;2022-07-29T13:43:11;5.85;;;2.65;;
69789;SDS011;57064;52.046;4.800;2022-07-29T13:45:38;5.10;;;2.67;;
69789;SDS011;57064;52.046;4.800;2022-07-29T13:48:04;9.88;;;2.90;;
69789;SDS011;57064;52.046;4.800;2022-07-29T13:50:31;9.93;;;3.08;;
69789;SDS011;57064;52.046;4.800;2022-07-29T13:52:58;8.77;;;2.60;;
69789;SDS011;57064;52.046;4.800;2022-07-29T13:55:24;2.95;;;2.00;;
69789;SDS011;57064;52.046;4.800;2022-07-29T13:57:50;7.40;;;2.42;;
69789;SDS011;57064;52.046;4.800;2022-07-29T14:00:16;7.03;;;2.00;;
69789;SDS011;57064;52.046;4.800;2022-07-29T14:02:43;6.43;;;2.20;;
69789;SDS011;57064;52.046;4.800;2022-07-29T14:05:10;6.70;;;2.22;;
69789;SDS011;57064;52.046;4.800;2022-07-29T14:07:37;6.03;;;2.30;;
69789;SDS011;57064;52.046;4.800;2022-07-29T14:10:05;4.47;;;1.90;;
69789;SDS011;57064;52.046;4.800;2022-07-29T14:12:35;4.22;;;2.20;;
69789;SDS011;57064;52.046;4.800;2022-07-29T14:15:01;6.15;;;2.53;;
69789;SDS011;57064;52.046;4.800;2022-07-29T14:17:27;7.28;;;2.20;;
69789;SDS011;57064;52.046;4.800;2022-07-29T14:19:53;2.75;;;1.65;;
69789;SDS011;57064;52.046;4.800;2022-07-29T14:22:21;5.88;;;2.05;;
69789;SDS011;57064;52.046;4.800;2022-07-29T14:24:47;7.10;;;2.90;;
69789;SDS011;57064;52.046;4.800;2022-07-29T14:27:13;6.15;;;2.50;;
69789;SDS011;57064;52.046;4.800;2022-07-29T14:29:39;5.35;;;2.13;;
69789;SDS011;57064;52.046;4.800;2022-07-29T14:32:05;10.07;;;4.55;;
69789;SDS011;57064;52.046;4.800;2022-07-29T14:34:32;35.67;;;12.48;;
69789;SDS011;57064;52.046;4.800;2022-07-29T14:36:59;24.08;;;11.50;;
69789;SDS011;57064;52.046;4.800;2022-07-29T14:39:25;16.48;;;8.88;;
69789;SDS011;57064;52.046;4.800;2022-07-29T14:41:51;5.13;;;2.65;;
69789;SDS011;57064;52.046;4.800;2022-07-29T14:44:18;5.45;;;2.47;;
69789;SDS011;57064;52.046;4.800;2022-07-29T14:46:44;6.45;;;1.77;;
69789;SDS011;57064;52.046;4.800;2022-07-29T14:49:10;6.00;;;2.38;;
69789;SDS011;57064;52.046;4.800;2022-07-29T14:51:36;2.58;;;1.55;;
69789;SDS011;57064;52.046;4.800;2022-07-29T14:54:02;2.65;;;1.33;;
69789;SDS011;57064;52.046;4.800;2022-07-29T14:56:28;3.70;;;1.80;;
69789;SDS011;57064;52.046;4.800;2022-07-29T14:58:55;7.05;;;1.95;;
69789;SDS011;57064;52.046;4.800;2022-07-29T15:01:22;5.60;;;1.95;;
69789;SDS011;57064;52.046;4.800;2022-07-29T15:03:49;4.10;;;1.52;;
69789;SDS011;57064;52.046;4.800;2022-07-29T15:06:18;3.17;;;1.60;;
69789;SDS011;57064;52.046;4.800;2022-07-29T15:08:44;5.03;;;1.40;;
69789;SDS011;57064;52.046;4.800;2022-07-29T15:11:10;3.97;;;1.50;;
69789;SDS011;57064;52.046;4.800;2022-07-29T15:13:36;5.40;;;1.98;;
69789;SDS011;57064;52.046;4.800;2022-07-29T15:16:05;3.55;;;1.70;;
69789;SDS011;57064;52.046;4.800;2022-07-29T15:18:31;5.05;;;1.95;;
69789;SDS011;57064;52.046;4.800;2022-07-29T15:20:58;4.20;;;1.60;;
69789;SDS011;57064;52.046;4.800;2022-07-29T15:23:25;6.78;;;1.98;;
69789;SDS011;57064;52.046;4.800;2022-07-29T15:25:51;4.00;;;1.63;;
69789;SDS011;57064;52.046;4.800;2022-07-29T15:28:17;4.05;;;1.70;;
69789;SDS011;57064;52.046;4.800;2022-07-29T15:30:43;4.70;;;1.42;;
69789;SDS011;57064;52.046;4.800;2022-07-29T15:33:09;6.28;;;1.90;;
69789;SDS011;57064;52.046;4.800;2022-07-29T15:35:37;3.53;;;1.67;;
69789;SDS011;57064;52.046;4.800;2022-07-29T15:38:03;5.20;;;1.80;;
69789;SDS011;57064;52.046;4.800;2022-07-29T15:40:29;5.00;;;2.00;;
69789;SDS011;57064;52.046;4.800;2022-07-29T15:42:55;6.43;;;1.60;;
69789;SDS011;57064;52.046;4.800;2022-07-29T15:45:25;7.38;;;2.67;;
69789;SDS011;57064;52.046;4.800;2022-07-29T15:47:52;7.03;;;1.92;;
69789;SDS011;57064;52.046;4.800;2022-07-29T15:50:18;2.55;;;1.60;;
69789;SDS011;57064;52.046;4.800;2022-07-29T15:52:44;5.55;;;1.80;;